Blue Oak Ranch Reserve, California Weather observations

Data are for 10 minute period ending at time listed.
 Day   Time   Solar   Ave.   Ave.  Ave.  Vector  Max.   Baro.   Total    
  of    of     Rad.   Air    Rel.  Wind   Wind   Wind  Press.  Precip.   
Year   Day            Temp.  Hum.  Speed  Dir.   Gust                    
2015   (PST)  Kw/m2    F      %     mph   deg.    mph    mb.     in.     
-------------------------------------------------------------------------
 146    9:30   0.76   57.2    69    3.9   216     7.2   947.6    0.00 
 146    9:40   0.79   58.8    67    3.1   243     7.9   947.6    0.00 
 146    9:50   0.81   60.3    64    5.2   249     8.0   947.6    0.00 
 146   10:00   0.83   59.7    65    4.6   230     8.6   947.7    0.00 
 146   10:10   0.85   60.3    64    4.8   235     9.4   947.8    0.00 
 146   10:20   0.87   60.4    64    5.4   253     9.9   947.9    0.00 
 146   10:30   0.88   60.5    63    5.3   245     9.2   947.9    0.00 
 146   10:40   0.89   61.3    62    4.5   257     8.6   947.9    0.00 
 146   10:50   0.91   61.6    62    5.6   274    10.8   947.9    0.00 
 146   11:00   0.92   62.9    60    5.3   264    10.0   948.0    0.00 
 146   11:10   0.93   62.5    60    4.8   254    10.4   948.1    0.00 
 146   11:20   0.93   63.4    58    5.2   248     9.1   948.1    0.00 
 146   11:30   0.94   63.6    57    5.5   246    10.7   948.1    0.00 
 146   11:40   0.94   63.2    57    5.5   254     9.7   948.1    0.00 
 146   11:50   0.94   63.7    56    5.8   273    10.2   948.1    0.00 
 146   12:00   0.95   63.4    56    5.9   271    12.2   948.1    0.00 
 146   12:10   0.94   63.4    55    7.2   272    12.0   948.1    0.00 
 146   12:20   0.94   64.4    54    6.4   259    12.7   948.0    0.00 
 146   12:30   0.94   64.4    53    6.1   274    12.2   947.9    0.00 
 146   12:40   0.94   65.0    53    6.3   262    12.0   947.8    0.00 
 146   12:50   0.91   65.0    53    5.5   271     8.8   947.8    0.00 
 146   13:00   0.93   65.7    52    5.3   244    10.4   947.8    0.00 
 146   13:10   0.93   67.0    51    4.3   230     8.3   947.7    0.00 
 146   13:20   0.92   67.1    50    5.0   257    11.1   947.7    0.00 
 146   13:30   0.91   67.6    49    5.1   216     9.2   947.7    0.00 
 146   13:40   0.89   67.9    50    5.1   228     9.3   947.8    0.00 
 146   13:50   0.88   67.9    52    6.3   237    11.2   947.8    0.00 
 146   14:00   0.86   67.5    53    6.8   257    12.3   947.7    0.00 
 146   14:10   0.84   67.6    53    7.4   249    12.1   947.8    0.00 
 146   14:20   0.83   67.5    53    6.5   250    11.0   947.7    0.00 
 146   14:30   0.81   67.4    53    7.6   236    14.0   947.6    0.00 
 146   14:40   0.79   67.7    52    6.8   228    12.6   947.6    0.00 
 146   14:50   0.76   67.9    52    6.2   255    13.4   947.6    0.00 
 146   15:00   0.74   68.1    52    7.2   253    13.1   947.6    0.00 
 146   15:10   0.72   67.6    53    7.4   248    12.0   947.5    0.00 
 146   15:20   0.69   67.4    53    7.1   259    12.6   947.5    0.00 
 146   15:30   0.66   66.8    54    6.2   249    10.7   947.5    0.00 
 146   15:40   0.63   67.4    53    5.9   246    10.9   947.3    0.00 
 146   15:50   0.60   67.5    53    6.0   236    10.1   947.3    0.00 
 146   16:00   0.57   67.1    54    6.6   241    11.2   947.3    0.00 
 146   16:10   0.54   66.9    54    6.0   253     9.9   947.4    0.00 
 146   16:20   0.51   66.9    54    7.0   256    10.6   947.4    0.00 
 146   16:30   0.48   66.1    55    6.8   233    11.5   947.4    0.00 
 146   16:40   0.45   66.1    56    5.0   238     8.2   947.3    0.00 
 146   16:50   0.42   66.3    55    6.1   237    10.2   947.3    0.00 
 146   17:00   0.39   65.8    56    5.4   240     9.2   947.2    0.00 
 146   17:10   0.36   65.3    57    5.5   252     9.2   947.1    0.00 
 146   17:20   0.32   65.3    57    5.4   239     9.6   947.1    0.00 
 146   17:30   0.29   64.7    58    4.9   255     8.0   947.0    0.00 
 146   17:40   0.26   64.5    59    5.1   266     8.8   947.0    0.00 
 146   17:50   0.23   63.6    60    4.9   268     8.8   947.0    0.00 
 146   18:00   0.20   63.6    60    3.6   265     6.3   946.9    0.00 
 146   18:10   0.17   63.6    60    4.1   268     7.3   946.9    0.00 
 146   18:20   0.14   63.1    61    3.2   276     5.0   946.9    0.00 
 146   18:30   0.11   62.4    62    2.3   265     4.1   946.8    0.00 
 146   18:40   0.08   60.7    65    2.3   236     4.3   946.8    0.00 
 146   18:50   0.06   59.8    67    1.2   245     2.9   946.8    0.00 
 146   19:00   0.04   59.3    68    1.8   284     3.3   946.7    0.00 
 146   19:10   0.02   58.0    70    1.1   285     3.1   946.7    0.00 
 146   19:20   0.01   55.1    76    0.4    25     1.5   946.7    0.00 
 146   19:30   0.01   53.0    80    0.4    15     1.7   946.7    0.00 
 146   19:40   0.00   51.9    83    0.6    46     1.9   946.9    0.00 
 146   19:50   0.00   51.1    84    1.3   286     2.0   947.2    0.00 
 146   20:00   0.00   50.6    86    0.4   296     1.2   947.4    0.00 
 146   20:10   0.00   49.8    87    0.8    62     2.2   947.6    0.00 
 146   20:20   0.00   49.0    88    1.1    61     2.3   947.8    0.00 
 146   20:30   0.00   48.5    89    0.3   348     1.2   948.0    0.00 
 146   20:40   0.00   48.2    90    0.0     0     0.0   948.1    0.00 
 146   20:50   0.00   47.8    90    0.3    38     2.0   948.2    0.00 
 146   21:00   0.00   47.4    91    0.1   293     0.8   948.2    0.00 
 146   21:10   0.00   47.2    91    0.0     0     0.0   948.3    0.00 
 146   21:20   0.00   47.0    92    0.1   128     0.8   948.2    0.00 
 146   21:30   0.00   46.8    92    0.1   120     0.7   948.2    0.00 
 146   21:40   0.00   46.5    92    0.0     0     0.0   948.1    0.00 
 146   21:50   0.00   45.7    92    1.4   294     2.7   948.0    0.00 
 146   22:00   0.00   45.5    93    1.0   353     2.5   948.1    0.00 
 146   22:10   0.00   45.5    93    2.1    63     3.1   948.1    0.00 
 146   22:20   0.00   44.9    93    1.5   290     2.5   948.2    0.00 
 146   22:30   0.00   44.9    94    0.5    31     2.1   948.2    0.00 
 146   22:40   0.00   45.0    94    1.2    63     2.0   948.2    0.00 
 146   22:50   0.00   44.5    94    0.5    54     1.7   948.1    0.00 
 146   23:00   0.00   44.5    94    1.2   268     2.9   948.0    0.00 
 146   23:10   0.00   43.7    94    1.9   306     3.4   948.2    0.00 
 146   23:20   0.00   44.2    95    2.2    76     2.8   948.3    0.00 
 146   23:30   0.00   45.2    95    0.7    66     2.2   948.3    0.00 
 146   23:40   0.00   45.9    95    0.1   310     1.1   948.3    0.00 
 146   23:50   0.00   47.0    95    0.0     0     0.0   948.2    0.00 
 147    0:00   0.00   47.5    95    0.0     0     0.0   948.2    0.00 
 147    0:10   0.00   48.2    95    0.5   162     2.5   948.1    0.00 
 147    0:20   0.00   48.4    95    1.4   132     2.3   948.0    0.00 
 147    0:30   0.00   48.8    95    0.4    72     1.8   948.0    0.00 
 147    0:40   0.00   48.8    95    1.2    89     2.9   947.9    0.00 
 147    0:50   0.00   48.6    95    1.2    69     2.5   947.8    0.00 
 147    1:00   0.00   48.5    96    0.6    50     1.9   947.8    0.00 
 147    1:10   0.00   48.4    96    1.2   154     2.9   947.7    0.00 
 147    1:20   0.00   48.1    96    0.3   294     2.0   947.8    0.00 
 147    1:30   0.00   47.9    96    1.2    84     3.2   947.8    0.00 
 147    1:40   0.00   47.8    96    1.3    65     2.6   947.7    0.00 
 147    1:50   0.00   47.8    96    1.3    56     3.6   947.7    0.00 
 147    2:00   0.00   47.6    96    1.2    39     2.6   947.7    0.00 
 147    2:10   0.00   47.3    96    2.0    64     3.4   947.6    0.00 
 147    2:20   0.00   47.0    96    2.1    54     3.1   947.6    0.00 
 147    2:30   0.00   47.0    96    1.3    68     3.3   947.6    0.00 
 147    2:40   0.00   46.9    96    1.4    77     3.3   947.6    0.00 
 147    2:50   0.00   46.8    96    0.9   129     2.9   947.7    0.00 
 147    3:00   0.00   46.3    96    1.7   135     3.9   947.7    0.00 
 147    3:10   0.00   46.2    97    1.1    44     2.0   947.6    0.00 
 147    3:20   0.00   46.2    96    1.3    76     3.4   947.6    0.00 
 147    3:30   0.00   46.1    97    0.8    46     2.1   947.6    0.00 
 147    3:40   0.00   46.1    96    0.6    52     1.8   947.7    0.00 
 147    3:50   0.00   46.0    96    2.5    72     4.4   947.7    0.00 
 147    4:00   0.00   45.6    97    3.5    66     7.0   947.6    0.00 
 147    4:10   0.00   45.8    97    4.0    56     8.0   947.5    0.00 
 147    4:20   0.00   45.9    97    2.0    67     3.3   947.4    0.00 
 147    4:30   0.00   45.9    97    1.4    71     3.4   947.6    0.00 
 147    4:40   0.00   45.9    97    3.0    57     4.5   947.6    0.00 
 147    4:50   0.01   45.9    97    3.5    54     5.1   947.6    0.00 
 147    5:00   0.01   46.0    97    3.5    60     6.3   947.6    0.00 
 147    5:10   0.01   45.8    97    1.0    70     3.4   947.6    0.00 
 147    5:20   0.01   45.8    97    1.7    90     3.1   947.9    0.00 
 147    5:30   0.02   46.0    97    1.8    72     3.6   948.0    0.00 
 147    5:40   0.03   46.4    97    1.5    73     3.7   948.1    0.00 
 147    5:50   0.03   46.9    97    1.3    83     3.0   948.2    0.00 
 147    6:00   0.05   47.3    97    1.7    66     3.2   948.0    0.00 
 147    6:10   0.07   47.4    97    1.4    60     3.0   948.0    0.00 
 147    6:20   0.08   47.5    97    1.5    17     3.5   948.0    0.00 
 147    6:30   0.11   47.4    97    1.5   328     2.9   948.0    0.00 
 147    6:40   0.17   47.8    96    1.1    26     2.7   948.0    0.00 
 147    6:50   0.22   48.6    96    0.9   192     2.5   948.0    0.00 
 147    7:00   0.30   50.2    96    1.8   222     3.6   948.0    0.00 
 147    7:10   0.17   49.5    94    2.2   191     3.9   948.1    0.00 
 147    7:20   0.25   50.0    93    0.8   113     2.6   948.1    0.00 
 147    7:30   0.42   52.1    86    1.6   290     4.2   948.1    0.00 
 147    7:40   0.46   53.9    79    2.0   320     4.4   948.1    0.00 
 147    7:50   0.48   55.5    75    1.8   307     3.4   948.1    0.00 
 147    8:00   0.52   57.6    70    2.1   156     5.0   948.0    0.00 
 147    8:10   0.55   57.6    69    2.7   110     5.7   947.9    0.00 
 147    8:20   0.58   58.2    66    1.1   125     4.0   947.9    0.00 
 147    8:30   0.61   60.0    64    3.0   228     6.1   947.9    0.00 
 147    8:40   0.63   59.7    65    3.9   261     7.4   948.0    0.00 
 147    8:50   0.66   60.4    64    4.2   245     7.8   948.2    0.00 
 147    9:00   0.69   60.3    64    4.3   259     8.7   948.3    0.00 
 147    9:10   0.71   60.5    64    4.7   268     7.2   948.2    0.00 
 147    9:20   0.74   60.9    64    4.9   270     7.9   948.2    0.00 

Return to Blue Oak Ranch Reserve graphs page.


Western Regional Climate Center,wrcc@dri.edu